MMPG

Piedras Negras International Airport

Mexico
TAF MMPG 180523Z 1806/1906 07008KT P6SM BKN030 TEMPO 1811/1815 BKN010 FM181900 02012KT 5SM -RA BKN020 TEMPO 1820/1824 3SM TSRA BKN020CB FM190500 08007KT P6SM BKN030
Issued Valid From Valid To
Jun-18 @ 05:23 UTC
(8 hours ago)
Jun-18 @ 06:00 UTC
(7 hours ago)
Jun-19 @ 06:00 UTC
(in 17 hours)
Jun-18 @ 06:00 to Jun-18 @ 19:00
TAF MMPG 180523Z 1806/1906 07008KT P6SM BKN030
Wind Visibility Clouds
70° at 8 knots Greater than 6 miles
  • Broken at 3,000' AGL
Temporary Jun-18 @ 11:00 to Jun-18 @ 15:00
TEMPO 1811/1815 BKN010
Clouds
  • Broken at 1,000' AGL
From Jun-18 @ 19:00 to Jun-19 @ 05:00
FM181900 02012KT 5SM -RA BKN020
Wind Visibility Clouds Conditions
20° at 12 knots 5 miles
  • Broken at 2,000' AGL
  • Light Rain
Temporary Jun-18 @ 20:00 to Jun-19 @ 00:00
TEMPO 1820/1824 3SM TSRA BKN020CB
Visibility Clouds Conditions
3 miles
  • Broken at 2,000' AGL
  • Thunderstorm
  • Rain
From Jun-19 @ 05:00 to Jun-19 @ 06:00
FM190500 08007KT P6SM BKN030
Wind Visibility Clouds
80° at 7 knots Greater than 6 miles
  • Broken at 3,000' AGL
TAF MMPG 180523Z 1806/1906 07008KT P6SM BKN030 TEMPO 1811/1815 BKN010 FM181900 02012KT 5SM -RA BKN020 TEMPO 1820/1824 3SM TSRA BKN020CB FM190500 08007KT P6SM BKN030
Issued Jun-18 @ 05:23 UTC
(8 hours ago)
Valid From Jun-18 @ 06:00 UTC
(7 hours ago)
Valid To Jun-19 @ 06:00 UTC
(in 17 hours)
Jun-18 @ 06:00 - Jun-18 @ 19:00
Wind Visibility
70° at 8 knots Greater than 6 miles
Clouds
  • Broken at 3,000' AGL
Temporary Jun-18 @ 11:00 - Jun-18 @ 15:00
Clouds
  • Broken at 1,000' AGL
From Jun-18 @ 19:00 - Jun-19 @ 05:00
Wind Visibility
20° at 12 knots 5 miles
Clouds
  • Broken at 2,000' AGL
Conditions
  • Light Rain
Temporary Jun-18 @ 20:00 - Jun-19 @ 00:00
Clouds
  • Broken at 2,000' AGL
Conditions
  • Thunderstorm
  • Rain
From Jun-19 @ 05:00 - Jun-19 @ 06:00
Wind Visibility
80° at 7 knots Greater than 6 miles
Clouds
  • Broken at 3,000' AGL